sensor_id;sensor_type;location;lat;lon;timestamp;pressure;altitude;pressure_sealevel;temperature;humidity
74431;BME280;62863;52.062;23.764;2023-10-31T00:00:39;1016;;;10.1;85
74431;BME280;62863;52.062;23.764;2023-10-31T00:06:05;1015.9;;;10.3;86
74431;BME280;62863;52.062;23.764;2023-10-31T00:10:39;1015.8;;;10.3;86.3
74431;BME280;62863;52.062;23.764;2023-10-31T00:15:33;1015.8;;;10.3;85.4
74431;BME280;62863;52.062;23.764;2023-10-31T00:20:31;1015.8;;;10.4;86.2
74431;BME280;62863;52.062;23.764;2023-10-31T00:25:49;1015.8;;;10.4;85.9
74431;BME280;62863;52.062;23.764;2023-10-31T00:30:49;1015.8;;;10.4;85.7
74431;BME280;62863;52.062;23.764;2023-10-31T00:35:49;1015.7;;;10.4;85.9
74431;BME280;62863;52.062;23.764;2023-10-31T00:40:49;1015.7;;;10.4;85.7
74431;BME280;62863;52.062;23.764;2023-10-31T00:50:37;1015.7;;;10.3;85.2
74431;BME280;62863;52.062;23.764;2023-10-31T00:56:03;1015.8;;;10.3;85.8
74431;BME280;62863;52.062;23.764;2023-10-31T01:00:37;1015.8;;;10.3;84.9
74431;BME280;62863;52.062;23.764;2023-10-31T01:05:35;1015.6;;;10.3;85.5
74431;BME280;62863;52.062;23.764;2023-10-31T01:10:33;1015.6;;;10.2;85.1
74431;BME280;62863;52.062;23.764;2023-10-31T01:15:53;1015.6;;;10.2;85.4
74431;BME280;62863;52.062;23.764;2023-10-31T01:21:05;1015.4;;;10.3;84.9
74431;BME280;62863;52.062;23.764;2023-10-31T01:25:53;1015.2;;;10.3;85.2
74431;BME280;62863;52.062;23.764;2023-10-31T01:35:43;1015;;;10.3;85.1
74431;BME280;62863;52.062;23.764;2023-10-31T01:46:03;1014.8;;;10.4;84.8
74431;BME280;62863;52.062;23.764;2023-10-31T01:50:33;1014.8;;;10.4;84.8
74431;BME280;62863;52.062;23.764;2023-10-31T01:55:45;1014.7;;;10.5;84.8
74431;BME280;62863;52.062;23.764;2023-10-31T02:00:33;1014.7;;;10.6;84.7
74431;BME280;62863;52.062;23.764;2023-10-31T02:05:53;1014.8;;;10.7;84
74431;BME280;62863;52.062;23.764;2023-10-31T02:11:03;1014.6;;;10.8;83.5
74431;BME280;62863;52.062;23.764;2023-10-31T02:15:53;1014.6;;;10.8;83.9
74431;BME280;62863;52.062;23.764;2023-10-31T02:20:51;1014.5;;;10.8;84
74431;BME280;62863;52.062;23.764;2023-10-31T02:25:41;1014.5;;;10.9;83.6
74431;BME280;62863;52.062;23.764;2023-10-31T02:30:40;1014.5;;;10.9;83.2
74431;BME280;62863;52.062;23.764;2023-10-31T02:35:47;1014.4;;;10.9;83
74431;BME280;62863;52.062;23.764;2023-10-31T02:40:33;1014.2;;;11;82.7
74431;BME280;62863;52.062;23.764;2023-10-31T02:45:27;1014.1;;;11.1;82.6
74431;BME280;62863;52.062;23.764;2023-10-31T02:50:39;1014;;;11.1;82.6
74431;BME280;62863;52.062;23.764;2023-10-31T02:55:53;1013.9;;;11.2;82.3
74431;BME280;62863;52.062;23.764;2023-10-31T03:01:05;1013.9;;;11.2;81.7
74431;BME280;62863;52.062;23.764;2023-10-31T03:05:41;1013.9;;;11.2;81.5
74431;BME280;62863;52.062;23.764;2023-10-31T03:10:49;1013.9;;;11.3;81.4
74431;BME280;62863;52.062;23.764;2023-10-31T03:15:25;1013.7;;;11.3;81.3
74431;BME280;62863;52.062;23.764;2023-10-31T03:20:33;1013.6;;;11.3;81.3
74431;BME280;62863;52.062;23.764;2023-10-31T03:26:05;1013.6;;;11.3;81.4
74431;BME280;62863;52.062;23.764;2023-10-31T03:30:46;1013.6;;;11.3;81.5
74431;BME280;62863;52.062;23.764;2023-10-31T03:35:27;1013.4;;;11.4;81
74431;BME280;62863;52.062;23.764;2023-10-31T03:40:33;1013.4;;;11.5;80.6
74431;BME280;62863;52.062;23.764;2023-10-31T03:45:53;1013.3;;;11.5;80.7
74431;BME280;62863;52.062;23.764;2023-10-31T03:50:57;1013.3;;;11.5;80.8
74431;BME280;62863;52.062;23.764;2023-10-31T03:55:43;1013.3;;;11.6;80.4
74431;BME280;62863;52.062;23.764;2023-10-31T04:00:45;1013.3;;;11.7;79.8
74431;BME280;62863;52.062;23.764;2023-10-31T04:05:55;1013.2;;;11.8;79.4
74431;BME280;62863;52.062;23.764;2023-10-31T04:10:27;1013.1;;;11.9;79.1
74431;BME280;62863;52.062;23.764;2023-10-31T04:16:05;1013;;;11.9;78.6
74431;BME280;62863;52.062;23.764;2023-10-31T04:20:55;1012.9;;;12;78.2
74431;BME280;62863;52.062;23.764;2023-10-31T04:25:27;1012.9;;;12.1;77.6
74431;BME280;62863;52.062;23.764;2023-10-31T04:30:37;1012.8;;;12.2;77
74431;BME280;62863;52.062;23.764;2023-10-31T04:35:53;1012.8;;;12.3;76.6
74431;BME280;62863;52.062;23.764;2023-10-31T04:41:03;1012.7;;;12.3;76.3
74431;BME280;62863;52.062;23.764;2023-10-31T05:00:37;1012.3;;;12.4;75
74431;BME280;62863;52.062;23.764;2023-10-31T05:05:51;1012.3;;;12.5;75
74431;BME280;62863;52.062;23.764;2023-10-31T05:20:33;1012;;;12.6;73.5
74431;BME280;62863;52.062;23.764;2023-10-31T05:35:43;1011.8;;;12.6;73.6
74431;BME280;62863;52.062;23.764;2023-10-31T05:40:49;1011.7;;;12.7;73.4
74431;BME280;62863;52.062;23.764;2023-10-31T05:45:57;1011.6;;;12.7;73.4
74431;BME280;62863;52.062;23.764;2023-10-31T05:50:37;1011.5;;;12.8;72.7
74431;BME280;62863;52.062;23.764;2023-10-31T05:56:01;1011.3;;;13;71.7
74431;BME280;62863;52.062;23.764;2023-10-31T06:00:27;1011.3;;;13.2;70.9
74431;BME280;62863;52.062;23.764;2023-10-31T06:05:27;1011.1;;;13.4;70.4
74431;BME280;62863;52.062;23.764;2023-10-31T06:15:41;1011.1;;;13.5;70
74431;BME280;62863;52.062;23.764;2023-10-31T06:21:03;1011;;;13.7;69.3
74431;BME280;62863;52.062;23.764;2023-10-31T06:31:03;1011;;;14.1;68.1
74431;BME280;62863;52.062;23.764;2023-10-31T06:35:49;1010.9;;;14.2;67.4
74431;BME280;62863;52.062;23.764;2023-10-31T06:40:37;1010.7;;;14.5;66.7
74431;BME280;62863;52.062;23.764;2023-10-31T06:45:39;1010.6;;;14.6;65.5
74431;BME280;62863;52.062;23.764;2023-10-31T06:50:33;1010.5;;;14.8;64.3
74431;BME280;62863;52.062;23.764;2023-10-31T06:55:27;1010.5;;;15;64.4
74431;BME280;62863;52.062;23.764;2023-10-31T07:01:03;1010.6;;;15.1;64.5
74431;BME280;62863;52.062;23.764;2023-10-31T07:05:45;1010.5;;;15.1;64
74431;BME280;62863;52.062;23.764;2023-10-31T07:11:03;1010.6;;;15.1;62.8
74431;BME280;62863;52.062;23.764;2023-10-31T07:16:03;1010.5;;;15.4;62.3
74431;BME280;62863;52.062;23.764;2023-10-31T07:20:29;1010.4;;;15.6;62
74431;BME280;62863;52.062;23.764;2023-10-31T07:25:49;1010.3;;;16;60.7
74431;BME280;62863;52.062;23.764;2023-10-31T07:30:45;1010.1;;;16.6;59.2
74431;BME280;62863;52.062;23.764;2023-10-31T07:35:49;1010.1;;;17.4;57.6
74431;BME280;62863;52.062;23.764;2023-10-31T07:40:27;1010.1;;;19.2;54.9
74431;BME280;62863;52.062;23.764;2023-10-31T07:45:27;1009.8;;;20.2;51.6
74431;BME280;62863;52.062;23.764;2023-10-31T07:51:03;1009.8;;;20.4;50.7
74431;BME280;62863;52.062;23.764;2023-10-31T07:55:45;1009.7;;;21.4;48.5
74431;BME280;62863;52.062;23.764;2023-10-31T08:01:03;1009.6;;;22.5;46.3
74431;BME280;62863;52.062;23.764;2023-10-31T08:06:04;1009.6;;;23;45.2
74431;BME280;62863;52.062;23.764;2023-10-31T08:10:49;1009.5;;;23.5;42.7
74431;BME280;62863;52.062;23.764;2023-10-31T08:15:49;1009.6;;;22.6;42.7
74431;BME280;62863;52.062;23.764;2023-10-31T08:20:37;1009.6;;;21.8;43.1
74431;BME280;62863;52.062;23.764;2023-10-31T08:25:49;1009.5;;;21.5;43.3
74431;BME280;62863;52.062;23.764;2023-10-31T08:30:33;1009.4;;;21.9;42.5
74431;BME280;62863;52.062;23.764;2023-10-31T08:35:31;1009.3;;;21.2;43.9
74431;BME280;62863;52.062;23.764;2023-10-31T08:41:03;1009.3;;;20.5;45
74431;BME280;62863;52.062;23.764;2023-10-31T08:45:57;1009.3;;;20;46.1
74431;BME280;62863;52.062;23.764;2023-10-31T08:51:03;1009.3;;;19.9;46.1
74431;BME280;62863;52.062;23.764;2023-10-31T08:56:03;1009.3;;;19.7;46.5
74431;BME280;62863;52.062;23.764;2023-10-31T09:00:45;1009.3;;;19.7;46.4
74431;BME280;62863;52.062;23.764;2023-10-31T09:05:49;1009.3;;;19.7;45.9
74431;BME280;62863;52.062;23.764;2023-10-31T09:10:37;1009.3;;;19.9;46.1
74431;BME280;62863;52.062;23.764;2023-10-31T09:15:49;1009.2;;;19.9;44.9
74431;BME280;62863;52.062;23.764;2023-10-31T09:20:39;1009.1;;;19.9;44.7
74431;BME280;62863;52.062;23.764;2023-10-31T09:25:31;1008.9;;;20.1;43.3
74431;BME280;62863;52.062;23.764;2023-10-31T09:31:03;1008.9;;;20.4;42.7
74431;BME280;62863;52.062;23.764;2023-10-31T09:35:43;1008.9;;;20.8;42.2
74431;BME280;62863;52.062;23.764;2023-10-31T09:41:01;1008.8;;;21.1;41.9
74431;BME280;62863;52.062;23.764;2023-10-31T09:46:01;1008.7;;;21.1;41.4
74431;BME280;62863;52.062;23.764;2023-10-31T09:50:47;1008.7;;;21.3;41.5
74431;BME280;62863;52.062;23.764;2023-10-31T09:55:49;1008.7;;;21.5;41
74431;BME280;62863;52.062;23.764;2023-10-31T10:00:27;1008.6;;;21.4;40.4
74431;BME280;62863;52.062;23.764;2023-10-31T10:05:49;1008.6;;;20.9;40.7
74431;BME280;62863;52.062;23.764;2023-10-31T10:10:27;1008.5;;;20.7;41.1
74431;BME280;62863;52.062;23.764;2023-10-31T10:15:27;1008.5;;;20.5;42
74431;BME280;62863;52.062;23.764;2023-10-31T10:20:54;1008.4;;;20.2;42.8
74431;BME280;62863;52.062;23.764;2023-10-31T10:25:27;1008.5;;;19.9;43.4
74431;BME280;62863;52.062;23.764;2023-10-31T10:36:04;1008.4;;;19.5;47
74431;BME280;62863;52.062;23.764;2023-10-31T10:40:49;1008.4;;;19.4;46.2
74431;BME280;62863;52.062;23.764;2023-10-31T10:45:50;1008.4;;;19;47.1
74431;BME280;62863;52.062;23.764;2023-10-31T10:50:27;1008.4;;;18.9;47.1
74431;BME280;62863;52.062;23.764;2023-10-31T10:55:51;1008.5;;;18.6;47.3
74431;BME280;62863;52.062;23.764;2023-10-31T11:00:27;1008.5;;;18.5;47.4
74431;BME280;62863;52.062;23.764;2023-10-31T11:05:33;1008.5;;;18.4;47.7
74431;BME280;62863;52.062;23.764;2023-10-31T11:10:57;1008.6;;;18.4;48.2
74431;BME280;62863;52.062;23.764;2023-10-31T11:15:45;1008.7;;;18.3;49
74431;BME280;62863;52.062;23.764;2023-10-31T11:21:03;1008.8;;;18.2;48.9
74431;BME280;62863;52.062;23.764;2023-10-31T11:31:01;1008.6;;;18;49
74431;BME280;62863;52.062;23.764;2023-10-31T11:36:04;1008.6;;;18.1;49.5
74431;BME280;62863;52.062;23.764;2023-10-31T11:45:34;1008.4;;;18;49.1
74431;BME280;62863;52.062;23.764;2023-10-31T11:50:45;1008.4;;;17.9;49.5
74431;BME280;62863;52.062;23.764;2023-10-31T11:55:27;1008.4;;;17.9;49.3
74431;BME280;62863;52.062;23.764;2023-10-31T12:01:00;1008.4;;;17.9;49.5
74431;BME280;62863;52.062;23.764;2023-10-31T12:05:27;1008.4;;;17.9;49.5
74431;BME280;62863;52.062;23.764;2023-10-31T12:11:04;1008.3;;;17.8;49.4
74431;BME280;62863;52.062;23.764;2023-10-31T12:15:55;1008.2;;;17.8;49.4
74431;BME280;62863;52.062;23.764;2023-10-31T12:21:03;1008.2;;;17.8;49.1
74431;BME280;62863;52.062;23.764;2023-10-31T12:30:43;1008;;;17.8;49
74431;BME280;62863;52.062;23.764;2023-10-31T12:35:43;1008;;;17.8;48.9
74431;BME280;62863;52.062;23.764;2023-10-31T12:40:27;1008;;;17.9;48.6
74431;BME280;62863;52.062;23.764;2023-10-31T12:45:33;1008;;;17.9;48.7
74431;BME280;62863;52.062;23.764;2023-10-31T12:51:13;1007.9;;;18;48.6
74431;BME280;62863;52.062;23.764;2023-10-31T12:55:27;1007.9;;;18;48.6
74431;BME280;62863;52.062;23.764;2023-10-31T13:01:10;1008;;;18.1;48.2
74431;BME280;62863;52.062;23.764;2023-10-31T13:05:45;1008;;;18.2;47.9
74431;BME280;62863;52.062;23.764;2023-10-31T13:11:03;1008;;;18.2;47.5
74431;BME280;62863;52.062;23.764;2023-10-31T13:16:06;1008;;;18.2;47.7
74431;BME280;62863;52.062;23.764;2023-10-31T13:20:39;1008.1;;;18.2;48
74431;BME280;62863;52.062;23.764;2023-10-31T13:25:33;1008.1;;;18.2;47.9
74431;BME280;62863;52.062;23.764;2023-10-31T13:30:39;1008.1;;;18.3;47.9
74431;BME280;62863;52.062;23.764;2023-10-31T13:35:33;1008.1;;;18.3;47.8
74431;BME280;62863;52.062;23.764;2023-10-31T13:40:55;1008.2;;;18.2;48
74431;BME280;62863;52.062;23.764;2023-10-31T13:45:43;1008.2;;;18.2;48.3
74431;BME280;62863;52.062;23.764;2023-10-31T13:51:03;1008.2;;;18.3;48.7
74431;BME280;62863;52.062;23.764;2023-10-31T13:55:29;1008.2;;;18.3;48.6
74431;BME280;62863;52.062;23.764;2023-10-31T14:01:03;1008.2;;;18.1;48.9
74431;BME280;62863;52.062;23.764;2023-10-31T14:06:04;1008.2;;;18;49.5
74431;BME280;62863;52.062;23.764;2023-10-31T14:10:27;1008.2;;;17.9;49.7
74431;BME280;62863;52.062;23.764;2023-10-31T14:15:41;1008.2;;;17.8;49.9
74431;BME280;62863;52.062;23.764;2023-10-31T14:20:28;1008.3;;;17.8;50.3
74431;BME280;62863;52.062;23.764;2023-10-31T14:25:33;1008.3;;;17.7;50.6
74431;BME280;62863;52.062;23.764;2023-10-31T14:30:41;1008.3;;;17.7;50.8
74431;BME280;62863;52.062;23.764;2023-10-31T14:35:45;1008.3;;;17.6;50.6
74431;BME280;62863;52.062;23.764;2023-10-31T14:41:03;1008.4;;;17.4;51.3
74431;BME280;62863;52.062;23.764;2023-10-31T14:51:05;1008.4;;;17.1;51.8
74431;BME280;62863;52.062;23.764;2023-10-31T15:05:27;1008.4;;;16.8;53.2
74431;BME280;62863;52.062;23.764;2023-10-31T15:10:39;1008.4;;;16.7;53.6
74431;BME280;62863;52.062;23.764;2023-10-31T15:15:33;1008.4;;;16.6;53.9
74431;BME280;62863;52.062;23.764;2023-10-31T15:20:57;1008.4;;;16.6;54.5
74431;BME280;62863;52.062;23.764;2023-10-31T16:30:49;1008.7;;;15.4;58
74431;BME280;62863;52.062;23.764;2023-10-31T17:20:51;1009;;;15;60.5
74431;BME280;62863;52.062;23.764;2023-10-31T17:26:02;1009.1;;;15;59.8
74431;BME280;62863;52.062;23.764;2023-10-31T17:30:51;1009.1;;;15.1;60
74431;BME280;62863;52.062;23.764;2023-10-31T17:55:40;1009.1;;;15.2;60.6
74431;BME280;62863;52.062;23.764;2023-10-31T18:10:52;1009.5;;;15.2;60.9
74431;BME280;62863;52.062;23.764;2023-10-31T18:25:33;1009.9;;;15.2;62.9
74431;BME280;62863;52.062;23.764;2023-10-31T18:35:45;1010;;;14.7;67.9
74431;BME280;62863;52.062;23.764;2023-10-31T20:05:28;1009.7;;;14.1;77.2
74431;BME280;62863;52.062;23.764;2023-10-31T20:10:34;1009.8;;;14.1;77.4
74431;BME280;62863;52.062;23.764;2023-10-31T20:15:44;1009.9;;;14.1;77.8
74431;BME280;62863;52.062;23.764;2023-10-31T20:21:04;1009.9;;;14.1;77.4
74431;BME280;62863;52.062;23.764;2023-10-31T20:25:58;1010;;;14.1;77.3
74431;BME280;62863;52.062;23.764;2023-10-31T20:30:42;1010;;;14.1;77.6
74431;BME280;62863;52.062;23.764;2023-10-31T20:35:58;1010;;;14.1;77.8
74431;BME280;62863;52.062;23.764;2023-10-31T20:40:42;1010;;;14;78
74431;BME280;62863;52.062;23.764;2023-10-31T20:46:06;1009.8;;;14;78.7
74431;BME280;62863;52.062;23.764;2023-10-31T20:50:34;1009.8;;;14.1;79.7
74431;BME280;62863;52.062;23.764;2023-10-31T20:55:32;1009.9;;;14.1;79.9
74431;BME280;62863;52.062;23.764;2023-10-31T21:00:28;1009.8;;;14.1;80
74431;BME280;62863;52.062;23.764;2023-10-31T21:05:34;1009.9;;;14.1;80
74431;BME280;62863;52.062;23.764;2023-10-31T21:11:04;1009.9;;;14.1;80
74431;BME280;62863;52.062;23.764;2023-10-31T21:15:36;1009.9;;;14.1;79.6
74431;BME280;62863;52.062;23.764;2023-10-31T21:20:44;1009.8;;;14.1;79.1
74431;BME280;62863;52.062;23.764;2023-10-31T21:25:48;1009.8;;;14.1;79.2
74431;BME280;62863;52.062;23.764;2023-10-31T21:30:54;1009.8;;;14.1;79.2
74431;BME280;62863;52.062;23.764;2023-10-31T21:36:04;1009.8;;;14;79.4
74431;BME280;62863;52.062;23.764;2023-10-31T21:40:42;1010;;;14;79.7
74431;BME280;62863;52.062;23.764;2023-10-31T21:45:28;1010.1;;;14;80.6
74431;BME280;62863;52.062;23.764;2023-10-31T21:50:34;1010.2;;;14;80.8
74431;BME280;62863;52.062;23.764;2023-10-31T21:55:34;1010.2;;;14;81
74431;BME280;62863;52.062;23.764;2023-10-31T22:01:06;1010.1;;;14;81.2
74431;BME280;62863;52.062;23.764;2023-10-31T22:05:56;1010.1;;;14;80.9
74431;BME280;62863;52.062;23.764;2023-10-31T22:10:28;1010.1;;;14;80.7
74431;BME280;62863;52.062;23.764;2023-10-31T22:15:56;1010.1;;;14;80
74431;BME280;62863;52.062;23.764;2023-10-31T22:20:52;1010.3;;;14;79.4
74431;BME280;62863;52.062;23.764;2023-10-31T22:26:02;1010.3;;;13.5;77.4
74431;BME280;62863;52.062;23.764;2023-10-31T22:30:34;1010.4;;;13.2;77.4
74431;BME280;62863;52.062;23.764;2023-10-31T22:35:28;1010.5;;;12.9;77.8
74431;BME280;62863;52.062;23.764;2023-10-31T22:40:28;1010.5;;;12.7;78.6
74431;BME280;62863;52.062;23.764;2023-10-31T22:45:46;1010.4;;;12.6;79.4
74431;BME280;62863;52.062;23.764;2023-10-31T22:51:06;1010.6;;;12.5;79.7
74431;BME280;62863;52.062;23.764;2023-10-31T22:55:56;1010.6;;;12.5;79.7
74431;BME280;62863;52.062;23.764;2023-10-31T23:00:44;1010.6;;;12.5;79.7
74431;BME280;62863;52.062;23.764;2023-10-31T23:05:58;1010.7;;;12.5;79.7
74431;BME280;62863;52.062;23.764;2023-10-31T23:10:54;1010.6;;;12.4;79.3
74431;BME280;62863;52.062;23.764;2023-10-31T23:16:06;1010.7;;;12.4;79.2
74431;BME280;62863;52.062;23.764;2023-10-31T23:20:58;1010.9;;;12.5;78.9
74431;BME280;62863;52.062;23.764;2023-10-31T23:25:44;1011;;;12.5;78.8
74431;BME280;62863;52.062;23.764;2023-10-31T23:30:46;1010.9;;;12.4;78.8
74431;BME280;62863;52.062;23.764;2023-10-31T23:35:28;1010.9;;;12.4;79.1
74431;BME280;62863;52.062;23.764;2023-10-31T23:41:04;1010.8;;;12.5;79.7
74431;BME280;62863;52.062;23.764;2023-10-31T23:45:48;1011;;;12.5;79.9
74431;BME280;62863;52.062;23.764;2023-10-31T23:50:28;1011.1;;;12.5;80
74431;BME280;62863;52.062;23.764;2023-10-31T23:55:44;1011.1;;;12.5;79.8
